Time;durP1;ratioP1;P1;durP2;ratioP2;P2;SDS_P1;SDS_P2;PMS_P1;PMS_P2;Temp;Humidity;BMP_temperature;BMP_pressure;BME280_temperature;BME280_humidity;BME280_pressure;Samples;Min_cycle;Max_cycle;Signal;HPM_P1;HPM_P2
2023/05/23 00:01:41;;;;;;;8.23;7.37;;;14.70;99.90;;;;;;5075633;28;20167;-70
2023/05/23 00:04:08;;;;;;;9.73;8.17;;;14.60;99.90;;;;;;5090966;28;20189;-69
2023/05/23 00:06:35;;;;;;;8.10;7.30;;;14.60;99.90;;;;;;5095322;28;20419;-70
2023/05/23 00:09:01;;;;;;;8.87;7.43;;;14.60;99.90;;;;;;5092608;28;20506;-71
2023/05/23 00:11:28;;;;;;;8.07;7.27;;;14.60;99.90;;;;;;5095690;28;20392;-72
2023/05/23 00:13:59;;;;;;;7.80;6.87;;;14.70;99.90;;;;;;5080444;28;20600;-70
2023/05/23 00:16:25;;;;;;;8.20;7.33;;;14.70;99.90;;;;;;5076190;28;20404;-72
2023/05/23 00:18:52;;;;;;;9.73;7.70;;;14.80;99.90;;;;;;5090136;28;20919;-72
2023/05/23 00:21:18;;;;;;;12.17;7.90;;;14.60;99.90;;;;;;5094199;28;20533;-70
2023/05/23 00:23:44;;;;;;;10.10;7.10;;;14.60;99.90;;;;;;5081992;28;20452;-71
2023/05/23 00:26:10;;;;;;;8.73;7.87;;;14.60;99.90;;;;;;5076056;28;20182;-71
2023/05/23 00:28:38;;;;;;;11.17;7.83;;;14.60;99.90;;;;;;5075939;28;20235;-73
2023/05/23 00:31:07;;;;;;;8.63;7.80;;;14.60;99.90;;;;;;5074582;28;20416;-70
2023/05/23 00:33:33;;;;;;;8.00;6.73;;;14.60;99.90;;;;;;5096091;28;20465;-70
2023/05/23 00:35:59;;;;;;;7.90;7.10;;;14.70;99.90;;;;;;5095808;28;20396;-72
2023/05/23 00:38:27;;;;;;;10.33;7.23;;;14.80;99.90;;;;;;5074779;28;20405;-70
2023/05/23 00:40:53;;;;;;;7.00;6.30;;;14.80;99.90;;;;;;5076891;28;20514;-73
2023/05/23 00:43:21;;;;;;;7.70;6.90;;;14.80;99.90;;;;;;5095530;28;20935;-70
2023/05/23 00:45:48;;;;;;;7.47;6.77;;;14.80;99.90;;;;;;5094636;28;20404;-70
2023/05/23 00:48:14;;;;;;;12.47;6.47;;;14.80;99.90;;;;;;5075919;28;20396;-72
2023/05/23 00:50:41;;;;;;;6.77;6.00;;;14.80;99.90;;;;;;5072971;28;20401;-73
2023/05/23 00:53:07;;;;;;;6.63;5.97;;;14.80;99.90;;;;;;5095183;28;20462;-72
2023/05/23 00:55:33;;;;;;;8.20;6.10;;;14.80;99.90;;;;;;5093773;28;20752;-71
2023/05/23 00:57:59;;;;;;;8.37;6.33;;;14.90;99.90;;;;;;5075502;28;20504;-71
2023/05/23 01:00:37;;;;;;;14.30;5.93;;;14.90;99.90;;;;;;5074474;28;21266;-73
2023/05/23 01:03:06;;;;;;;7.27;6.53;;;14.90;99.90;;;;;;5095460;28;20964;-70
2023/05/23 01:05:44;;;;;;;5.90;5.40;;;14.90;99.90;;;;;;5094716;28;20408;-73
2023/05/23 01:08:10;;;;;;;8.67;5.97;;;14.90;99.90;;;;;;5074853;28;20967;-72
2023/05/23 01:10:37;;;;;;;6.67;6.07;;;14.90;99.90;;;;;;5092386;28;20416;-70
2023/05/23 01:13:17;;;;;;;5.70;5.20;;;14.90;99.90;;;;;;5095162;28;20497;-72
2023/05/23 01:15:54;;;;;;;15.40;6.10;;;14.90;99.90;;;;;;5076393;28;20448;-70
2023/05/23 01:18:37;;;;;;;9.23;6.63;;;14.80;99.90;;;;;;5080659;28;20588;-71
2023/05/23 01:21:16;;;;;;;6.43;5.93;;;14.90;99.90;;;;;;5093939;28;20415;-71
2023/05/23 01:24:07;;;;;;;7.87;5.93;;;14.80;99.90;;;;;;5085481;28;20458;-70
2023/05/23 01:26:42;;;;;;;6.47;5.90;;;14.80;99.90;;;;;;5074442;28;20417;-73
2023/05/23 01:29:23;;;;;;;28.63;6.90;;;14.70;99.90;;;;;;5084671;28;20418;-72
2023/05/23 01:31:53;;;;;;;6.97;5.90;;;14.60;99.90;;;;;;5093973;28;20888;-70
2023/05/23 01:34:20;;;;;;;10.53;6.43;;;14.50;99.90;;;;;;5082747;28;20428;-72
2023/05/23 01:36:52;;;;;;;6.47;5.87;;;14.30;99.90;;;;;;5073715;28;20412;-72
2023/05/23 01:39:18;;;;;;;8.80;6.30;;;14.30;99.90;;;;;;5085404;28;20444;-72
2023/05/23 01:41:44;;;;;;;6.70;6.20;;;14.20;99.90;;;;;;5092598;28;20461;-73
2023/05/23 01:44:10;;;;;;;6.17;5.60;;;14.10;99.90;;;;;;5084784;28;20193;-72
2023/05/23 01:46:38;;;;;;;6.50;5.93;;;14.10;99.90;;;;;;5073210;28;20400;-69
2023/05/23 01:49:05;;;;;;;8.43;5.70;;;14.10;99.90;;;;;;5081924;28;20461;-72
2023/05/23 01:51:33;;;;;;;10.67;5.83;;;14.10;99.90;;;;;;5093598;28;20415;-70
2023/05/23 01:54:02;;;;;;;7.43;6.23;;;14.20;99.90;;;;;;5091477;28;20840;-72
2023/05/23 01:56:58;;;;;;;6.40;5.80;;;14.20;99.90;;;;;;5094746;28;20400;-72
2023/05/23 01:59:24;;;;;;;8.57;5.03;;;14.10;99.90;;;;;;5080890;28;20913;-72
2023/05/23 02:01:50;;;;;;;6.23;5.73;;;13.90;99.90;;;;;;5072467;28;20908;-72
2023/05/23 02:04:16;;;;;;;7.90;6.23;;;13.90;99.90;;;;;;5084044;28;20431;-70
2023/05/23 02:06:41;;;;;;;6.67;5.53;;;14.00;99.90;;;;;;5094410;28;20380;-69
2023/05/23 02:09:08;;;;;;;6.03;5.53;;;14.00;99.90;;;;;;5084683;28;20654;-71
2023/05/23 02:11:34;;;;;;;5.90;5.30;;;14.10;99.90;;;;;;5071813;28;20170;-72
2023/05/23 02:14:01;;;;;;;5.83;5.33;;;14.00;99.90;;;;;;5085199;28;20483;-70
2023/05/23 02:16:27;;;;;;;5.60;5.00;;;14.10;99.90;;;;;;5094255;28;20911;-72
2023/05/23 02:18:55;;;;;;;8.07;5.73;;;14.10;99.90;;;;;;5083299;28;20417;-72
2023/05/23 02:21:22;;;;;;;5.50;5.00;;;14.10;99.90;;;;;;5073091;28;20166;-72
2023/05/23 02:23:48;;;;;;;5.57;4.90;;;14.10;99.90;;;;;;5082132;28;20459;-72
2023/05/23 02:26:13;;;;;;;8.87;5.67;;;14.10;99.90;;;;;;5092779;28;20498;-70
2023/05/23 02:28:40;;;;;;;6.23;5.63;;;14.00;99.90;;;;;;5086887;28;20174;-70
2023/05/23 02:31:05;;;;;;;6.40;5.90;;;14.00;99.90;;;;;;5072844;28;20192;-72
2023/05/23 02:33:31;;;;;;;6.10;5.50;;;14.00;99.90;;;;;;5081551;28;20542;-72
2023/05/23 02:35:57;;;;;;;6.93;6.30;;;14.00;99.90;;;;;;5092279;28;20507;-70
2023/05/23 02:38:23;;;;;;;6.07;4.83;;;14.10;99.90;;;;;;5086780;28;20166;-71
2023/05/23 02:40:50;;;;;;;6.17;5.13;;;14.10;99.90;;;;;;5072832;28;20173;-72
2023/05/23 02:43:16;;;;;;;5.83;5.13;;;14.10;99.90;;;;;;5078583;28;20195;-71
2023/05/23 02:45:42;;;;;;;5.83;4.70;;;14.10;99.90;;;;;;5092335;28;20847;-73
2023/05/23 02:48:07;;;;;;;6.60;5.40;;;14.10;99.90;;;;;;5089978;28;20619;-70
2023/05/23 02:50:33;;;;;;;5.33;4.87;;;14.20;99.90;;;;;;5072540;28;20205;-70
2023/05/23 02:52:59;;;;;;;6.40;5.20;;;14.20;99.90;;;;;;5073965;28;20206;-69
2023/05/23 02:55:25;;;;;;;5.77;5.30;;;14.20;99.90;;;;;;5073629;28;20158;-70
2023/05/23 02:57:51;;;;;;;5.27;4.70;;;14.20;99.90;;;;;;5090990;28;20260;-70
2023/05/23 03:00:17;;;;;;;6.00;5.43;;;14.20;99.90;;;;;;5092800;28;20464;-71
2023/05/23 03:02:43;;;;;;;6.00;5.40;;;14.20;99.90;;;;;;5077418;28;20428;-71
2023/05/23 03:05:09;;;;;;;6.50;5.43;;;14.20;99.90;;;;;;5073442;28;20397;-71
2023/05/23 03:07:35;;;;;;;6.60;5.27;;;14.20;99.90;;;;;;5083382;28;20204;-71
2023/05/23 03:10:01;;;;;;;10.90;5.80;;;14.20;99.90;;;;;;5074635;28;20178;-70
2023/05/23 03:12:29;;;;;;;9.00;5.33;;;14.20;99.90;;;;;;5072421;28;20452;-70
2023/05/23 03:14:55;;;;;;;5.80;5.30;;;14.20;99.90;;;;;;5087268;28;20252;-71
2023/05/23 03:17:24;;;;;;;9.33;5.23;;;14.10;99.90;;;;;;5097260;28;20993;-70
2023/05/23 03:19:50;;;;;;;6.60;6.00;;;14.10;99.90;;;;;;5086944;28;20435;-73
2023/05/23 03:22:16;;;;;;;6.20;5.60;;;14.20;99.90;;;;;;5076525;28;20897;-70
2023/05/23 03:24:42;;;;;;;7.70;5.77;;;14.20;99.90;;;;;;5085339;28;20268;-71
2023/05/23 03:27:30;;;;;;;5.73;5.27;;;14.30;99.90;;;;;;5095723;28;20412;-70
2023/05/23 03:29:55;;;;;;;6.43;5.43;;;14.20;99.90;;;;;;5095374;28;20180;-72
2023/05/23 03:32:21;;;;;;;5.90;4.57;;;14.20;99.90;;;;;;5095432;28;20447;-72
2023/05/23 03:34:47;;;;;;;5.10;4.70;;;14.30;99.90;;;;;;5089609;28;20539;-69
2023/05/23 03:37:12;;;;;;;6.80;5.80;;;14.30;99.90;;;;;;5077134;28;20519;-70
2023/05/23 03:39:38;;;;;;;6.90;5.40;;;14.40;99.90;;;;;;5089389;28;20169;-69
2023/05/23 03:42:04;;;;;;;5.70;5.20;;;14.40;99.90;;;;;;5095086;28;20182;-72
2023/05/23 03:44:30;;;;;;;6.73;5.60;;;14.30;99.90;;;;;;5085473;28;20767;-72
2023/05/23 03:46:56;;;;;;;6.57;5.83;;;14.30;99.90;;;;;;5076931;28;20422;-70
2023/05/23 03:49:22;;;;;;;4.70;4.40;;;14.30;99.90;;;;;;5085486;28;20554;-70
2023/05/23 03:51:48;;;;;;;8.20;5.73;;;14.30;99.90;;;;;;5095984;28;20491;-70
2023/05/23 03:54:16;;;;;;;5.67;5.10;;;14.30;99.90;;;;;;5094957;28;20181;-69
2023/05/23 03:56:42;;;;;;;6.03;5.10;;;14.40;99.90;;;;;;5096818;28;20253;-70
2023/05/23 03:59:10;;;;;;;9.00;5.40;;;14.40;99.90;;;;;;5089986;28;20495;-71
2023/05/23 04:01:36;;;;;;;6.43;4.77;;;14.40;99.90;;;;;;5074325;28;20478;-73
2023/05/23 04:04:03;;;;;;;10.03;5.33;;;14.30;99.90;;;;;;5080050;28;20924;-72
2023/05/23 04:06:32;;;;;;;7.33;5.80;;;14.30;99.90;;;;;;5096638;28;20659;-71
2023/05/23 04:09:01;;;;;;;7.23;5.57;;;14.40;99.90;;;;;;5093691;28;20420;-70
2023/05/23 04:11:27;;;;;;;10.33;5.17;;;14.40;99.90;;;;;;5075487;28;20385;-72
2023/05/23 04:13:53;;;;;;;7.63;5.30;;;14.50;99.90;;;;;;5077289;28;20520;-70
2023/05/23 04:16:19;;;;;;;5.63;4.80;;;14.50;99.90;;;;;;5096490;28;20495;-70
2023/05/23 04:18:50;;;;;;;7.73;4.93;;;14.50;99.90;;;;;;5089541;28;20492;-72
2023/05/23 04:21:16;;;;;;;14.23;5.50;;;14.50;99.90;;;;;;5075290;28;20635;-71
2023/05/23 04:23:42;;;;;;;5.43;4.93;;;14.60;99.90;;;;;;5079780;28;20482;-71
2023/05/23 04:26:09;;;;;;;14.30;6.53;;;14.60;99.90;;;;;;5095097;28;20189;-71
2023/05/23 04:28:36;;;;;;;6.40;5.80;;;14.60;99.90;;;;;;5091990;28;20822;-71
2023/05/23 04:31:02;;;;;;;5.90;5.30;;;14.50;99.90;;;;;;5089414;28;20427;-72
2023/05/23 04:33:29;;;;;;;5.73;5.20;;;14.50;99.90;;;;;;5083305;28;20548;-70
2023/05/23 04:35:56;;;;;;;8.10;5.70;;;14.50;99.90;;;;;;5076010;28;20186;-71
2023/05/23 04:38:37;;;;;;;11.23;5.50;;;14.50;99.90;;;;;;5086532;28;20575;-71
2023/05/23 04:41:08;;;;;;;7.53;4.93;;;14.50;99.90;;;;;;5094277;28;20419;-71
2023/05/23 04:43:36;;;;;;;8.47;5.73;;;14.60;99.90;;;;;;5083586;28;20975;-70
2023/05/23 04:46:02;;;;;;;9.67;5.00;;;14.60;99.90;;;;;;5075859;28;20411;-70
2023/05/23 04:48:30;;;;;;;11.07;5.80;;;14.60;99.90;;;;;;5089665;28;20500;-71
2023/05/23 04:50:56;;;;;;;7.93;5.90;;;14.60;99.90;;;;;;5094784;28;20410;-71
2023/05/23 04:53:22;;;;;;;6.07;5.10;;;14.60;99.90;;;;;;5084549;28;20459;-70
2023/05/23 04:55:48;;;;;;;9.10;5.27;;;14.50;99.90;;;;;;5094754;28;20502;-71
2023/05/23 04:58:14;;;;;;;5.80;5.20;;;14.50;99.90;;;;;;5084038;28;20503;-70
2023/05/23 05:00:40;;;;;;;7.23;5.90;;;14.50;99.90;;;;;;5075594;28;20842;-72
2023/05/23 05:03:08;;;;;;;9.67;6.63;;;14.50;99.90;;;;;;5075491;28;20182;-70
2023/05/23 05:05:37;;;;;;;12.07;5.73;;;14.50;99.90;;;;;;5076665;28;20416;-69
2023/05/23 05:08:03;;;;;;;7.30;6.40;;;14.50;99.90;;;;;;5084379;28;20396;-72
2023/05/23 05:10:29;;;;;;;8.23;6.30;;;14.50;99.90;;;;;;5075325;28;20982;-72
2023/05/23 05:12:54;;;;;;;15.40;6.33;;;14.40;99.90;;;;;;5077003;28;20583;-73
2023/05/23 05:15:29;;;;;;;9.90;6.73;;;14.40;99.90;;;;;;5093633;28;20234;-72
2023/05/23 05:17:55;;;;;;;6.60;6.00;;;14.40;99.90;;;;;;5093045;28;20167;-73
2023/05/23 05:20:21;;;;;;;9.80;6.10;;;14.50;99.90;;;;;;5074184;28;20484;-72
2023/05/23 05:22:53;;;;;;;7.00;5.07;;;14.50;99.90;;;;;;5074883;28;20217;-75
2023/05/23 05:25:19;;;;;;;9.80;6.27;;;14.50;99.90;;;;;;5074840;28;20197;-73
2023/05/23 05:27:45;;;;;;;7.00;5.37;;;14.50;99.90;;;;;;5075013;28;20467;-74
2023/05/23 05:30:11;;;;;;;8.90;6.23;;;14.50;99.90;;;;;;5092926;28;20514;-75
2023/05/23 05:32:37;;;;;;;6.70;6.10;;;14.50;99.90;;;;;;5093828;28;20291;-75
2023/05/23 05:35:03;;;;;;;9.83;5.40;;;14.50;99.90;;;;;;5076855;28;20762;-73
2023/05/23 05:37:29;;;;;;;9.00;5.63;;;14.50;99.90;;;;;;5074006;28;20612;-72
2023/05/23 05:39:56;;;;;;;6.00;5.50;;;14.50;99.90;;;;;;5089767;28;20502;-75
2023/05/23 05:42:22;;;;;;;5.77;5.30;;;14.50;99.90;;;;;;5094062;28;20395;-72
2023/05/23 05:44:59;;;;;;;6.43;5.83;;;14.60;99.90;;;;;;5076252;28;20448;-74
2023/05/23 05:47:25;;;;;;;7.67;5.67;;;14.60;99.90;;;;;;5074305;28;20452;-71
2023/05/23 05:49:51;;;;;;;6.07;5.57;;;14.60;99.90;;;;;;5091874;28;20415;-70
2023/05/23 05:52:19;;;;;;;7.83;5.37;;;14.60;99.90;;;;;;5088667;28;20456;-71
2023/05/23 05:54:45;;;;;;;6.50;5.80;;;14.60;99.90;;;;;;5092712;28;20180;-71
2023/05/23 05:57:13;;;;;;;10.93;5.17;;;14.60;99.90;;;;;;5089192;28;20412;-73
2023/05/23 05:59:58;;;;;;;5.70;5.20;;;14.60;99.90;;;;;;5073715;28;20169;-74
2023/05/23 06:02:24;;;;;;;8.30;5.40;;;14.60;99.90;;;;;;5072244;28;20505;-71
2023/05/23 06:04:50;;;;;;;9.83;6.00;;;14.60;99.90;;;;;;5093820;28;20407;-73
2023/05/23 06:07:16;;;;;;;11.90;5.43;;;14.60;99.90;;;;;;5094484;28;20407;-71
2023/05/23 06:09:42;;;;;;;6.50;5.90;;;14.60;99.90;;;;;;5075053;28;20185;-76
2023/05/23 06:12:08;;;;;;;8.67;6.50;;;14.60;99.90;;;;;;5092880;28;20408;-72
2023/05/23 06:14:33;;;;;;;7.03;5.43;;;14.60;99.90;;;;;;5076891;28;20170;-73
2023/05/23 06:16:59;;;;;;;7.13;5.70;;;14.60;99.90;;;;;;5073041;28;20178;-73
2023/05/23 06:22:38;;;;;;;8.07;5.60;;;14.50;99.90;;;;;;5047256;28;20550;-74
2023/05/23 06:25:05;;;;;;;6.13;5.60;;;14.50;99.90;;;;;;5073363;28;20447;-76
2023/05/23 06:27:31;;;;;;;7.50;6.70;;;14.50;99.90;;;;;;5082970;28;20177;-74
2023/05/23 06:29:57;;;;;;;10.20;6.60;;;14.40;99.90;;;;;;5091280;28;20769;-74
2023/05/23 06:32:22;;;;;;;8.00;6.97;;;14.40;99.90;;;;;;5091454;28;20342;-74
2023/05/23 06:34:48;;;;;;;13.30;8.40;;;14.30;99.90;;;;;;5077084;28;20177;-74
2023/05/23 06:37:14;;;;;;;12.67;7.30;;;14.30;99.90;;;;;;5075508;28;20649;-71
2023/05/23 06:39:40;;;;;;;8.13;6.60;;;14.30;99.90;;;;;;5080048;28;20166;-73
2023/05/23 06:42:06;;;;;;;7.67;6.90;;;14.30;99.90;;;;;;5071427;28;20202;-73
2023/05/23 06:44:31;;;;;;;9.17;6.97;;;14.30;99.90;;;;;;5083847;28;20180;-73
2023/05/23 06:46:57;;;;;;;7.53;6.80;;;14.30;99.90;;;;;;5092654;28;20948;-70
2023/05/23 06:49:24;;;;;;;10.73;7.80;;;14.30;99.90;;;;;;5083577;28;20253;-74
2023/05/23 06:51:50;;;;;;;8.73;7.77;;;14.30;99.90;;;;;;5072156;28;20399;-73
2023/05/23 06:54:16;;;;;;;7.07;6.47;;;14.30;99.90;;;;;;5092079;28;20446;-73
2023/05/23 06:56:42;;;;;;;9.93;7.13;;;14.30;99.90;;;;;;5093598;28;20400;-71
2023/05/23 06:59:08;;;;;;;9.60;7.90;;;14.20;99.90;;;;;;5073431;28;20452;-73
2023/05/23 07:01:33;;;;;;;8.00;7.30;;;14.30;99.90;;;;;;5071544;28;20178;-72
2023/05/23 07:03:59;;;;;;;8.70;7.80;;;14.40;99.90;;;;;;5079016;28;20670;-72
2023/05/23 07:06:28;;;;;;;8.30;7.50;;;14.30;99.90;;;;;;5092703;28;20192;-73
2023/05/23 07:08:56;;;;;;;8.80;7.33;;;14.30;99.90;;;;;;5092071;28;20181;-73
2023/05/23 07:11:25;;;;;;;9.43;6.30;;;14.30;99.90;;;;;;5092782;28;20392;-73
2023/05/23 07:13:51;;;;;;;8.50;7.33;;;14.40;99.90;;;;;;5092429;28;20510;-71
2023/05/23 07:16:20;;;;;;;9.63;8.03;;;14.50;99.90;;;;;;5093519;28;20977;-73
2023/05/23 07:18:50;;;;;;;8.43;7.53;;;14.60;99.90;;;;;;5093017;28;20638;-74
2023/05/23 07:21:15;;;;;;;11.23;10.00;;;14.60;99.90;;;;;;5091084;28;20422;-75
2023/05/23 07:23:41;;;;;;;11.33;10.10;;;14.60;99.90;;;;;;5091634;28;20475;-74
2023/05/23 07:26:08;;;;;;;11.20;9.87;;;14.60;99.90;;;;;;5073433;28;20319;-72
2023/05/23 07:28:35;;;;;;;11.30;8.50;;;14.60;99.90;;;;;;5072466;28;20172;-74
2023/05/23 07:31:00;;;;;;;8.93;8.03;;;14.60;99.90;;;;;;5073934;28;20513;-72
2023/05/23 07:33:45;;;;;;;10.53;9.10;;;14.70;99.90;;;;;;5091490;28;20467;-74
2023/05/23 07:36:11;;;;;;;8.40;7.63;;;14.60;99.90;;;;;;5092810;28;20178;-72
2023/05/23 07:38:37;;;;;;;10.70;8.40;;;14.50;99.90;;;;;;5092945;28;20740;-74
2023/05/23 07:41:02;;;;;;;8.13;7.30;;;14.50;99.90;;;;;;5090201;28;20181;-72
2023/05/23 07:43:28;;;;;;;8.87;8.03;;;14.50;99.90;;;;;;5092696;28;20711;-74
2023/05/23 07:45:54;;;;;;;14.47;8.73;;;14.50;99.90;;;;;;5092465;28;20267;-73
2023/05/23 07:48:20;;;;;;;9.73;8.80;;;14.40;99.90;;;;;;5092731;28;20201;-73
2023/05/23 07:50:46;;;;;;;10.17;8.90;;;14.40;99.90;;;;;;5090843;28;20686;-72
2023/05/23 07:53:12;;;;;;;12.63;7.63;;;14.30;99.90;;;;;;5071256;28;20570;-74
2023/05/23 07:55:37;;;;;;;13.50;8.00;;;14.30;99.90;;;;;;5072529;28;20397;-73
2023/05/23 07:58:03;;;;;;;10.20;8.30;;;14.20;99.90;;;;;;5072486;28;20173;-69
2023/05/23 08:00:29;;;;;;;13.67;8.63;;;14.10;99.90;;;;;;5073221;28;20568;-67
2023/05/23 08:02:55;;;;;;;10.97;9.87;;;13.90;99.90;;;;;;5093384;28;20454;-67
2023/05/23 08:05:22;;;;;;;12.43;9.13;;;14.00;99.90;;;;;;5096299;28;20382;-70
2023/05/23 08:07:48;;;;;;;9.90;7.90;;;14.00;99.90;;;;;;5096315;28;20507;-67
2023/05/23 08:10:14;;;;;;;9.10;7.37;;;13.90;99.90;;;;;;5094229;28;20401;-68
2023/05/23 08:12:40;;;;;;;13.50;9.10;;;13.80;99.90;;;;;;5094846;28;20236;-70
2023/05/23 08:15:06;;;;;;;9.70;8.27;;;13.90;99.90;;;;;;5096332;28;21004;-70
2023/05/23 08:17:32;;;;;;;8.60;7.43;;;13.90;99.90;;;;;;5096235;28;20162;-70
2023/05/23 08:20:00;;;;;;;10.30;8.43;;;13.90;99.90;;;;;;5088441;28;20947;-71
2023/05/23 08:22:25;;;;;;;11.60;8.73;;;13.90;99.90;;;;;;5073837;28;20613;-71
2023/05/23 08:24:51;;;;;;;15.23;8.57;;;13.90;99.90;;;;;;5075520;28;20440;-69
2023/05/23 08:27:17;;;;;;;9.90;7.80;;;14.00;99.90;;;;;;5074553;28;20231;-70
2023/05/23 08:29:43;;;;;;;10.47;7.67;;;14.00;99.90;;;;;;5074178;28;20209;-70
2023/05/23 08:32:08;;;;;;;11.80;8.37;;;13.90;99.90;;;;;;5074603;28;20568;-70
2023/05/23 08:34:37;;;;;;;10.30;7.97;;;13.90;1.00;;;;;;5074234;28;20178;-72
2023/05/23 08:37:03;;;;;;;20.53;9.27;;;13.90;1.00;;;;;;5074623;28;20174;-70
2023/05/23 08:39:29;;;;;;;10.37;7.70;;;13.90;1.00;;;;;;5090842;28;20450;-71
2023/05/23 08:41:54;;;;;;;11.83;8.13;;;13.90;1.00;;;;;;5093710;28;20185;-72
2023/05/23 08:44:20;;;;;;;12.37;8.80;;;13.90;1.00;;;;;;5095587;28;20189;-70
2023/05/23 08:46:48;;;;;;;12.93;8.40;;;13.90;1.00;;;;;;5094295;28;20653;-72
2023/05/23 08:49:16;;;;;;;9.73;6.73;;;13.80;1.00;;;;;;5094633;28;20201;-72
2023/05/23 08:51:43;;;;;;;9.60;7.40;;;13.70;1.00;;;;;;5094778;28;20470;-71
2023/05/23 08:54:12;;;;;;;13.37;8.50;;;13.60;1.00;;;;;;5095335;28;20451;-71
2023/05/23 08:56:38;;;;;;;8.60;7.17;;;13.60;1.00;;;;;;5095297;28;20400;-70
2023/05/23 08:59:05;;;;;;;8.30;7.43;;;13.60;1.00;;;;;;5082641;28;20439;-70
2023/05/23 09:01:32;;;;;;;9.33;7.30;;;13.40;1.00;;;;;;5074131;28;20407;-72
2023/05/23 09:04:03;;;;;;;8.97;7.57;;;13.20;1.00;;;;;;5074815;28;20432;-72
2023/05/23 09:06:29;;;;;;;8.23;6.50;;;13.20;1.00;;;;;;5075200;28;20400;-71
2023/05/23 09:08:55;;;;;;;7.23;5.90;;;13.10;1.00;;;;;;5083604;28;20410;-71
2023/05/23 09:11:23;;;;;;;6.50;4.90;;;13.00;1.00;;;;;;5093230;28;20419;-72
2023/05/23 09:13:48;;;;;;;6.07;4.60;;;12.80;1.00;;;;;;5095088;28;20470;-70
2023/05/23 09:16:16;;;;;;;5.17;4.40;;;12.80;1.00;;;;;;5092969;28;20724;-72
2023/05/23 09:18:43;;;;;;;8.77;5.70;;;12.70;1.00;;;;;;5093048;28;20176;-71
2023/05/23 09:21:11;;;;;;;4.63;4.23;;;12.70;1.00;;;;;;5090268;28;20406;-69
2023/05/23 09:23:38;;;;;;;4.03;3.73;;;12.60;1.00;;;;;;5094846;28;20443;-70
2023/05/23 09:26:06;;;;;;;5.13;4.10;;;12.60;1.00;;;;;;5078335;28;20556;-70
2023/05/23 09:28:33;;;;;;;4.20;3.10;;;12.60;1.00;;;;;;5085231;28;20459;-69
2023/05/23 09:31:03;;;;;;;4.60;3.67;;;12.60;1.00;;;;;;5077865;28;20482;-72
2023/05/23 09:33:49;;;;;;;3.57;3.20;;;12.70;1.00;;;;;;5074193;28;20492;-70
2023/05/23 09:36:16;;;;;;;7.63;2.53;;;12.70;1.00;;;;;;5090736;28;20390;-69
2023/05/23 09:38:45;;;;;;;4.03;3.00;;;12.60;1.00;;;;;;5090732;28;20422;-70
2023/05/23 09:41:11;;;;;;;4.03;3.23;;;12.60;1.00;;;;;;5077710;28;20984;-69
2023/05/23 09:43:53;;;;;;;6.53;3.40;;;12.60;1.00;;;;;;5074303;28;20450;-69
2023/05/23 09:46:20;;;;;;;2.60;2.40;;;12.60;1.00;;;;;;5090169;28;20481;-69
2023/05/23 09:48:51;;;;;;;3.00;2.70;;;12.70;1.00;;;;;;5088600;28;21003;-75
2023/05/23 09:51:22;;;;;;;3.60;3.30;;;12.70;1.00;;;;;;5086955;28;20473;-70
2023/05/23 09:53:49;;;;;;;2.93;2.73;;;12.70;1.00;;;;;;5094051;28;20955;-69
2023/05/23 09:56:18;;;;;;;3.27;2.80;;;12.70;1.00;;;;;;5079221;28;20433;-69
2023/05/23 09:58:47;;;;;;;4.33;3.40;;;12.80;1.00;;;;;;5081670;28;20427;-68
2023/05/23 10:01:13;;;;;;;3.13;2.93;;;12.80;1.00;;;;;;5087207;28;20401;-68
2023/05/23 10:03:49;;;;;;;3.30;3.00;;;12.70;1.00;;;;;;5089323;28;20437;-69
2023/05/23 10:06:51;;;;;;;2.80;2.60;;;12.80;1.00;;;;;;5084562;28;20432;-70
2023/05/23 10:09:19;;;;;;;3.20;2.90;;;12.70;1.00;;;;;;5074964;28;20375;-71
2023/05/23 10:12:32;;;;;;;3.83;3.47;;;12.80;1.00;;;;;;5091683;28;20751;-69
2023/05/23 10:15:03;;;;;;;4.00;3.00;;;12.80;1.00;;;;;;5085344;28;20940;-70
2023/05/23 10:17:50;;;;;;;6.10;3.17;;;12.80;1.00;;;;;;5073598;28;20413;-70
2023/05/23 10:20:21;;;;;;;5.07;3.33;;;12.80;1.00;;;;;;5075732;28;20409;-71
2023/05/23 10:22:48;;;;;;;3.20;2.90;;;12.80;1.00;;;;;;5072498;28;20542;-72
2023/05/23 10:25:15;;;;;;;7.27;4.13;;;12.70;1.00;;;;;;5085373;28;20431;-70
2023/05/23 10:27:42;;;;;;;5.67;3.57;;;12.70;1.00;;;;;;5092604;28;20769;-70
2023/05/23 10:30:08;;;;;;;6.80;3.70;;;12.70;1.00;;;;;;5082241;28;20394;-70
2023/05/23 10:32:35;;;;;;;6.90;3.90;;;12.60;1.00;;;;;;5072841;28;20452;-71
2023/05/23 10:35:42;;;;;;;9.17;4.90;;;12.60;1.00;;;;;;5078509;28;20515;-71
2023/05/23 10:38:08;;;;;;;9.30;4.50;;;12.60;1.00;;;;;;4975928;28;20412;-70
2023/05/23 10:40:47;;;;;;;5.37;4.10;;;12.60;1.00;;;;;;5059524;28;20409;-70
2023/05/23 10:43:29;;;;;;;8.40;4.03;;;12.70;1.00;;;;;;5090723;28;20243;-70
2023/05/23 10:45:55;;;;;;;5.43;4.93;;;12.80;1.00;;;;;;5074283;28;20432;-71
2023/05/23 10:48:30;;;;;;;15.77;6.40;;;13.00;1.00;;;;;;5073145;28;20371;-71
2023/05/23 10:51:08;;;;;;;14.93;5.97;;;13.20;1.00;;;;;;5089781;28;20211;-73
2023/05/23 10:53:36;;;;;;;15.53;6.50;;;13.30;1.00;;;;;;5071083;28;20463;-71
2023/05/23 10:56:08;;;;;;;7.33;4.90;;;13.30;1.00;;;;;;5091464;28;20387;-70
2023/05/23 10:58:35;;;;;;;10.23;5.57;;;13.30;1.00;;;;;;5083701;28;20984;-70
2023/05/23 11:01:08;;;;;;;8.37;4.70;;;13.20;99.90;;;;;;5089776;28;20414;-71
2023/05/23 11:03:46;;;;;;;17.57;6.70;;;13.40;99.90;;;;;;5091781;28;20447;-75
2023/05/23 11:06:34;;;;;;;11.23;4.40;;;13.50;99.90;;;;;;5072888;28;20777;-72
2023/05/23 11:09:15;;;;;;;14.83;4.93;;;13.60;99.90;;;;;;5072468;28;20470;-71
2023/05/23 11:11:53;;;;;;;7.53;4.80;;;13.60;99.90;;;;;;5073784;28;20451;-71
2023/05/23 11:14:44;;;;;;;6.40;4.17;;;13.60;99.90;;;;;;5072716;28;20846;-72
2023/05/23 11:17:18;;;;;;;9.70;4.90;;;13.70;99.90;;;;;;5070529;28;20415;-71
2023/05/23 11:20:05;;;;;;;6.20;4.20;;;13.80;99.90;;;;;;5084300;28;20916;-72
2023/05/23 11:22:32;;;;;;;13.80;4.40;;;14.10;99.90;;;;;;5091633;28;20447;-71
2023/05/23 11:25:00;;;;;;;9.90;4.63;;;14.10;99.90;;;;;;5079144;28;20494;-71
2023/05/23 11:27:33;;;;;;;7.03;3.87;;;14.10;99.90;;;;;;5072178;28;20893;-71
2023/05/23 11:30:14;;;;;;;10.90;4.60;;;14.40;99.90;;;;;;5085018;28;20411;-72
2023/05/23 11:32:41;;;;;;;9.43;3.80;;;14.40;99.90;;;;;;5079283;28;20460;-72
2023/05/23 11:35:11;;;;;;;7.23;4.37;;;14.50;99.90;;;;;;5072854;28;20412;-71
2023/05/23 11:37:40;;;;;;;8.80;4.93;;;14.90;99.90;;;;;;5075591;28;20458;-73
2023/05/23 11:40:25;;;;;;;8.50;4.70;;;15.30;99.90;;;;;;5078851;28;21016;-75
2023/05/23 11:42:55;;;;;;;9.43;4.17;;;15.60;99.90;;;;;;5093257;28;20480;-69
2023/05/23 11:45:24;;;;;;;5.40;3.40;;;15.50;99.90;;;;;;5078131;28;20939;-69
2023/05/23 11:47:57;;;;;;;5.40;4.23;;;15.30;94.00;;;;;;5081641;28;20548;-70
2023/05/23 11:50:23;;;;;;;9.83;4.07;;;15.20;85.80;;;;;;5079344;28;20432;-71
2023/05/23 11:52:52;;;;;;;6.53;4.57;;;15.00;52.50;;;;;;5093146;28;20498;-72
2023/05/23 11:55:20;;;;;;;9.27;4.60;;;14.90;54.90;;;;;;5080163;28;20931;-69
2023/05/23 11:57:46;;;;;;;5.60;4.47;;;14.90;39.10;;;;;;5096394;28;20842;-70
2023/05/23 12:00:12;;;;;;;7.57;4.30;;;15.00;39.80;;;;;;5076648;28;20420;-74
2023/05/23 12:02:39;;;;;;;5.93;3.60;;;15.00;1.00;;;;;;5083559;28;20947;-71
2023/05/23 12:05:28;;;;;;;8.90;4.20;;;15.10;11.00;;;;;;5077611;28;20420;-73
2023/05/23 12:08:15;;;;;;;5.33;3.37;;;15.10;1.00;;;;;;5109080;28;20949;-71
2023/05/23 12:10:55;;;;;;;6.97;3.20;;;15.00;1.00;;;;;;5074259;28;20503;-74
2023/05/23 12:13:24;;;;;;;6.27;3.63;;;15.00;1.00;;;;;;5075591;28;20452;-67
2023/05/23 12:15:56;;;;;;;6.43;3.47;;;15.10;1.00;;;;;;5075745;28;20480;-69
2023/05/23 12:18:22;;;;;;;5.43;3.70;;;15.10;1.00;;;;;;5081900;28;20408;-72
2023/05/23 12:20:50;;;;;;;11.00;3.77;;;15.20;1.00;;;;;;5076270;28;20431;-74
2023/05/23 12:23:23;;;;;;;4.83;4.00;;;15.60;1.00;;;;;;5075619;28;20501;-68
2023/05/23 12:25:52;;;;;;;9.93;3.93;;;15.90;1.00;;;;;;5075725;28;20421;-74
2023/05/23 12:28:19;;;;;;;10.93;4.23;;;16.10;1.00;;;;;;5075584;28;20393;-74
2023/05/23 12:30:45;;;;;;;9.33;4.07;;;16.20;1.00;;;;;;5086945;28;20485;-65
2023/05/23 12:33:12;;;;;;;8.50;3.50;;;16.00;1.00;;;;;;5091811;28;20490;-74
2023/05/23 12:35:41;;;;;;;8.23;5.90;;;15.90;1.00;;;;;;5076439;28;20451;-66
2023/05/23 12:38:07;;;;;;;5.80;3.97;;;15.60;1.00;;;;;;5078136;28;20428;-73
2023/05/23 12:40:33;;;;;;;5.50;3.90;;;15.40;1.00;;;;;;5090546;28;22170;-74
2023/05/23 12:42:59;;;;;;;3.93;3.50;;;15.20;1.00;;;;;;5095706;28;20197;-67
2023/05/23 12:45:33;;;;;;;5.50;3.80;;;15.20;1.00;;;;;;5079741;28;20226;-74
2023/05/23 12:48:12;;;;;;;6.17;3.50;;;15.30;1.00;;;;;;5075474;28;20169;-75
2023/05/23 12:50:57;;;;;;;8.60;5.17;;;15.40;1.00;;;;;;5083120;28;20468;-75
2023/05/23 12:53:26;;;;;;;10.40;4.60;;;15.30;1.00;;;;;;5078311;28;20525;-75
2023/05/23 12:55:52;;;;;;;16.23;5.43;;;15.30;1.00;;;;;;5077690;28;20404;-67
2023/05/23 12:58:18;;;;;;;10.70;3.67;;;15.40;1.00;;;;;;5074385;28;20505;-68
2023/05/23 13:00:55;;;;;;;9.37;4.97;;;15.40;1.00;;;;;;5072834;28;20209;-67